Time;durP1;ratioP1;P1;durP2;ratioP2;P2;SDS_P1;SDS_P2;PMS_P1;PMS_P2;Temp;Humidity;BMP_temperature;BMP_pressure;BME280_temperature;BME280_humidity;BME280_pressure;Samples;Min_cycle;Max_cycle;Signal;HPM_P1;HPM_P2
2022/10/12 00:02:02;;;;;;;6.70;2.60;;;7.60;99.90;;;;;;5105006;27;20129;-77
2022/10/12 00:04:27;;;;;;;7.78;2.42;;;7.60;99.90;;;;;;5108906;27;20043;-77
2022/10/12 00:06:53;;;;;;;7.70;2.42;;;7.50;99.90;;;;;;5108960;27;20058;-77
2022/10/12 00:09:22;;;;;;;6.28;2.72;;;7.50;99.90;;;;;;5134013;27;20129;-78
2022/10/12 00:11:47;;;;;;;4.55;2.45;;;9.80;99.90;;;;;;5108486;27;20054;-77
2022/10/12 00:14:13;;;;;;;9.07;3.08;;;7.40;99.90;;;;;;5122921;27;20043;-79
2022/10/12 00:16:39;;;;;;;9.05;2.70;;;9.20;99.90;;;;;;5132934;27;20070;-77
2022/10/12 00:19:04;;;;;;;7.18;2.70;;;9.10;99.90;;;;;;5147565;27;20125;-77
2022/10/12 00:21:30;;;;;;;10.32;2.70;;;7.40;99.90;;;;;;5132484;27;20038;-79
2022/10/12 00:24:00;;;;;;;6.03;2.17;;;7.90;99.90;;;;;;5147395;27;20043;-77
2022/10/12 00:26:27;;;;;;;5.85;2.88;;;8.30;99.90;;;;;;5131250;27;20055;-77
2022/10/12 00:29:01;;;;;;;7.38;3.03;;;7.40;99.90;;;;;;5103022;27;20090;-77
2022/10/12 00:31:27;;;;;;;6.78;2.60;;;7.40;99.90;;;;;;5149000;27;20083;-78
2022/10/12 00:33:53;;;;;;;9.70;3.60;;;9.50;99.90;;;;;;5116558;27;20163;-76
2022/10/12 00:36:26;;;;;;;9.32;3.20;;;8.40;99.90;;;;;;5127899;27;20240;-77
2022/10/12 00:38:58;;;;;;;7.57;2.75;;;7.50;99.90;;;;;;5126762;27;20053;-78
2022/10/12 00:41:27;;;;;;;6.80;2.85;;;7.40;99.90;;;;;;5106566;27;20118;-76
2022/10/12 00:43:55;;;;;;;7.38;2.75;;;9.20;99.90;;;;;;5133243;27;20102;-78
2022/10/12 00:46:33;;;;;;;5.75;2.50;;;9.50;99.90;;;;;;5125054;27;20949;-77
2022/10/12 00:49:06;;;;;;;3.85;2.25;;;7.40;99.90;;;;;;5102667;27;20095;-78
2022/10/12 00:51:32;;;;;;;7.63;2.30;;;7.30;99.90;;;;;;5118819;27;20049;-76
2022/10/12 00:54:04;;;;;;;8.68;2.95;;;9.20;99.90;;;;;;5114636;27;20469;-78
2022/10/12 00:56:35;;;;;;;9.38;2.25;;;7.10;99.90;;;;;;5124509;27;20126;-79
2022/10/12 00:59:03;;;;;;;5.75;2.47;;;7.40;99.90;;;;;;5101919;27;20039;-77
2022/10/12 01:01:33;;;;;;;7.43;2.47;;;7.30;99.90;;;;;;5107488;27;20482;-78
2022/10/12 01:03:59;;;;;;;4.47;2.47;;;9.10;99.90;;;;;;5120736;27;20062;-77
2022/10/12 01:06:25;;;;;;;7.07;2.42;;;8.30;99.90;;;;;;5142879;27;20035;-76
2022/10/12 01:08:53;;;;;;;8.60;2.22;;;7.30;99.90;;;;;;5147915;27;20043;-77
2022/10/12 01:11:19;;;;;;;6.10;1.98;;;8.30;99.90;;;;;;5114005;27;20057;-78
2022/10/12 01:13:45;;;;;;;5.55;2.10;;;9.10;99.90;;;;;;5129851;27;20363;-76
2022/10/12 01:16:49;;;;;;;4.35;2.40;;;7.60;99.90;;;;;;5151355;27;20051;-76
2022/10/12 01:19:59;;;;;;;3.40;1.70;;;8.30;99.90;;;;;;5106324;27;20413;-79
2022/10/12 01:22:25;;;;;;;5.78;1.80;;;7.20;99.90;;;;;;5132120;27;20058;-77
2022/10/12 01:25:03;;;;;;;6.82;2.20;;;7.20;99.90;;;;;;5128080;27;20104;-78
2022/10/12 01:27:51;;;;;;;6.43;2.08;;;7.20;99.90;;;;;;5109753;27;20099;-77
2022/10/12 01:30:33;;;;;;;4.82;1.60;;;7.20;99.90;;;;;;5147217;27;20051;-79
2022/10/12 01:33:01;;;;;;;3.28;1.67;;;7.20;99.90;;;;;;5146747;27;20135;-78
2022/10/12 01:35:38;;;;;;;8.15;2.17;;;8.70;99.90;;;;;;5141440;27;20065;-78
2022/10/12 01:38:14;;;;;;;9.20;2.47;;;7.10;99.90;;;;;;5130987;27;20126;-77
2022/10/12 01:40:58;;;;;;;2.70;1.67;;;7.10;99.90;;;;;;5118712;27;20080;-76
2022/10/12 01:43:33;;;;;;;6.82;2.25;;;7.10;99.90;;;;;;5148855;27;20051;-76
2022/10/12 01:46:26;;;;;;;3.95;1.98;;;7.10;99.90;;;;;;5098377;27;20422;-78
2022/10/12 01:48:59;;;;;;;4.97;2.25;;;7.10;99.90;;;;;;5119934;27;20130;-77
2022/10/12 01:51:42;;;;;;;8.13;1.63;;;7.00;99.90;;;;;;5100916;27;20057;-76
2022/10/12 01:54:35;;;;;;;9.32;3.50;;;7.00;99.90;;;;;;5149837;27;20063;-77
2022/10/12 01:57:27;;;;;;;3.88;1.70;;;7.00;99.90;;;;;;5120253;27;20092;-76
2022/10/12 02:00:06;;;;;;;2.95;1.85;;;7.00;99.90;;;;;;5144432;27;20546;-76
2022/10/12 02:02:43;;;;;;;4.15;1.20;;;7.00;99.90;;;;;;5125355;27;20037;-77
2022/10/12 02:05:47;;;;;;;9.18;1.67;;;7.00;99.90;;;;;;5145537;27;20035;-76
2022/10/12 02:08:25;;;;;;;6.82;1.73;;;7.00;99.90;;;;;;5116899;27;20476;-76
2022/10/12 02:11:17;;;;;;;4.57;1.70;;;7.00;99.90;;;;;;5104197;27;20112;-76
2022/10/12 02:13:48;;;;;;;3.85;1.60;;;7.30;99.90;;;;;;5130878;27;20494;-76
2022/10/12 02:16:19;;;;;;;4.25;1.50;;;7.10;99.90;;;;;;5144492;27;20039;-76
2022/10/12 02:18:50;;;;;;;6.32;1.50;;;7.30;99.90;;;;;;5147572;27;20151;-77
2022/10/12 02:21:20;;;;;;;4.50;2.05;;;7.10;99.90;;;;;;5130136;27;20113;-78
2022/10/12 02:23:49;;;;;;;4.95;1.48;;;6.60;99.90;;;;;;5104495;27;20047;-77
2022/10/12 02:26:16;;;;;;;4.25;1.70;;;7.10;99.90;;;;;;5120422;27;20058;-76
2022/10/12 02:28:43;;;;;;;5.20;1.25;;;7.20;99.90;;;;;;5105527;27;20370;-78
2022/10/12 02:31:38;;;;;;;5.18;1.65;;;7.10;99.90;;;;;;5130663;27;20043;-78
2022/10/12 02:34:25;;;;;;;5.53;2.53;;;7.20;99.90;;;;;;5118783;27;20038;-77
2022/10/12 02:37:05;;;;;;;5.18;1.60;;;7.10;99.90;;;;;;5121508;27;20520;-78
2022/10/12 02:39:49;;;;;;;9.68;2.10;;;7.20;99.90;;;;;;5097485;27;20043;-76
2022/10/12 02:42:19;;;;;;;3.15;1.20;;;7.20;99.90;;;;;;5143541;27;20446;-76
2022/10/12 02:44:46;;;;;;;5.45;1.45;;;7.10;99.90;;;;;;5125438;27;20111;-78
2022/10/12 02:47:14;;;;;;;3.03;1.55;;;7.20;99.90;;;;;;5119085;27;20084;-77
2022/10/12 02:49:41;;;;;;;6.60;1.35;;;7.30;99.90;;;;;;5122805;27;20118;-77
2022/10/12 02:52:07;;;;;;;7.50;1.40;;;7.30;99.90;;;;;;5145442;27;20039;-77
2022/10/12 02:54:33;;;;;;;5.97;1.55;;;6.60;99.90;;;;;;5117479;28;20035;-77
2022/10/12 02:56:58;;;;;;;6.63;1.45;;;8.90;99.90;;;;;;5120827;27;20087;-77
2022/10/12 02:59:24;;;;;;;5.38;1.45;;;7.20;99.90;;;;;;5128278;27;20474;-77
2022/10/12 03:01:49;;;;;;;5.38;1.02;;;7.20;99.90;;;;;;5099353;28;20035;-75
2022/10/12 03:04:15;;;;;;;4.22;1.33;;;9.10;99.90;;;;;;5146780;27;20038;-77
2022/10/12 03:06:41;;;;;;;8.90;1.80;;;6.50;99.90;;;;;;5108456;28;20051;-78
2022/10/12 03:09:07;;;;;;;5.97;1.80;;;7.20;99.90;;;;;;5126678;27;20072;-77
2022/10/12 03:11:33;;;;;;;6.88;1.45;;;9.00;99.90;;;;;;5122103;27;20041;-78
2022/10/12 03:13:59;;;;;;;6.32;1.33;;;7.20;99.90;;;;;;5147421;27;20046;-78
2022/10/12 03:16:24;;;;;;;4.85;1.25;;;7.20;99.90;;;;;;5143621;27;20031;-77
2022/10/12 03:18:51;;;;;;;3.92;1.90;;;7.10;99.90;;;;;;5105680;28;20069;-78
2022/10/12 03:21:17;;;;;;;5.85;1.65;;;7.10;99.90;;;;;;5146707;27;20042;-77
2022/10/12 03:23:42;;;;;;;5.00;1.75;;;9.40;99.90;;;;;;5144998;27;20039;-77
2022/10/12 03:26:08;;;;;;;3.47;1.38;;;7.10;99.90;;;;;;5148488;27;20057;-78
2022/10/12 03:28:34;;;;;;;4.28;1.38;;;7.10;99.90;;;;;;5126347;27;20043;-77
2022/10/12 03:31:00;;;;;;;4.57;1.15;;;7.10;99.90;;;;;;5147153;27;20037;-78
2022/10/12 03:33:26;;;;;;;4.97;1.60;;;7.10;99.90;;;;;;5144194;27;20117;-78
2022/10/12 03:35:52;;;;;;;6.75;1.92;;;7.10;99.90;;;;;;5146885;27;20457;-76
2022/10/12 03:38:18;;;;;;;5.68;1.25;;;7.10;99.90;;;;;;5097926;27;20027;-77
2022/10/12 03:40:45;;;;;;;6.32;1.55;;;7.10;99.90;;;;;;5101335;28;20050;-77
2022/10/12 03:43:11;;;;;;;5.13;1.30;;;7.10;99.90;;;;;;5126798;27;20067;-77
2022/10/12 03:45:37;;;;;;;3.53;1.60;;;6.90;99.90;;;;;;5121358;27;20095;-77
2022/10/12 03:48:04;;;;;;;4.90;1.42;;;7.00;99.90;;;;;;5147599;27;20038;-77
2022/10/12 03:50:32;;;;;;;6.90;1.20;;;7.10;99.90;;;;;;5098289;27;20078;-78
2022/10/12 03:52:57;;;;;;;6.63;1.42;;;7.00;99.90;;;;;;5104246;27;20118;-77
2022/10/12 03:55:23;;;;;;;4.63;1.27;;;7.10;99.90;;;;;;5132232;27;20138;-76
2022/10/12 03:57:49;;;;;;;4.05;0.90;;;7.10;99.90;;;;;;5125944;27;20035;-79
2022/10/12 04:00:15;;;;;;;7.88;1.52;;;7.10;99.90;;;;;;5130157;27;20041;-78
2022/10/12 04:02:44;;;;;;;4.65;1.48;;;7.10;99.90;;;;;;5130300;27;20034;-76
2022/10/12 04:05:09;;;;;;;6.75;1.42;;;7.10;99.90;;;;;;5106363;27;20390;-77
2022/10/12 04:07:35;;;;;;;5.63;1.13;;;7.10;99.90;;;;;;5133730;27;20069;-76
2022/10/12 04:10:01;;;;;;;4.05;1.48;;;9.20;99.90;;;;;;5125006;27;20098;-76
2022/10/12 04:12:26;;;;;;;5.25;1.85;;;7.10;99.90;;;;;;5130072;27;20043;-79
2022/10/12 04:14:52;;;;;;;4.25;1.20;;;7.90;99.90;;;;;;5133938;27;20042;-77
2022/10/12 04:17:17;;;;;;;2.97;1.23;;;7.10;99.90;;;;;;5147492;27;20034;-78
2022/10/12 04:19:43;;;;;;;5.65;1.45;;;7.10;99.90;;;;;;5150319;27;20043;-78
2022/10/12 04:22:09;;;;;;;7.47;1.88;;;7.00;99.90;;;;;;5138578;27;20047;-78
2022/10/12 04:24:35;;;;;;;5.00;1.20;;;7.00;99.90;;;;;;5151009;27;20041;-77
2022/10/12 04:27:01;;;;;;;6.03;1.85;;;9.00;99.90;;;;;;5151241;27;20063;-78
2022/10/12 04:29:29;;;;;;;6.95;2.05;;;7.20;99.90;;;;;;5147348;27;20082;-77
2022/10/12 04:31:54;;;;;;;4.15;1.20;;;7.10;99.90;;;;;;5120973;27;20049;-78
2022/10/12 04:34:20;;;;;;;5.70;1.42;;;7.10;99.90;;;;;;5129788;27;20047;-78
2022/10/12 04:36:47;;;;;;;16.52;9.52;;;6.20;99.90;;;;;;5102669;27;20039;-77
2022/10/12 04:39:13;;;;;;;11.55;5.30;;;7.10;99.90;;;;;;5108092;27;20039;-77
2022/10/12 04:41:38;;;;;;;10.18;3.30;;;7.80;99.90;;;;;;5150602;27;20073;-77
2022/10/12 04:44:05;;;;;;;6.47;1.95;;;7.10;99.90;;;;;;5116285;27;20034;-77
2022/10/12 04:46:31;;;;;;;5.15;1.55;;;7.20;99.90;;;;;;5128450;27;20050;-78
2022/10/12 04:48:57;;;;;;;6.35;1.63;;;9.00;99.90;;;;;;5151429;27;20043;-77
2022/10/12 04:51:23;;;;;;;7.30;1.83;;;7.40;99.90;;;;;;5127875;27;20117;-77
2022/10/12 04:53:48;;;;;;;3.58;1.90;;;7.10;99.90;;;;;;5151127;27;20043;-77
2022/10/12 04:56:14;;;;;;;4.70;1.75;;;7.10;99.90;;;;;;5145628;27;20508;-77
2022/10/12 04:58:40;;;;;;;7.60;1.85;;;7.10;99.90;;;;;;5121887;27;20115;-77
2022/10/12 05:01:05;;;;;;;8.60;1.70;;;7.10;99.90;;;;;;5151067;27;20521;-77
2022/10/12 05:03:34;;;;;;;5.38;2.03;;;7.20;99.90;;;;;;5145952;27;20118;-77
2022/10/12 05:05:59;;;;;;;9.48;1.70;;;7.10;99.90;;;;;;5151595;27;20075;-77
2022/10/12 05:08:26;;;;;;;9.70;2.22;;;7.10;99.90;;;;;;5150854;27;20662;-79
2022/10/12 05:10:52;;;;;;;8.68;2.35;;;7.00;99.90;;;;;;5129951;27;20096;-76
2022/10/12 05:13:18;;;;;;;7.43;3.33;;;5.40;99.90;;;;;;5132332;27;20046;-76
2022/10/12 05:15:44;;;;;;;8.40;3.30;;;7.10;99.90;;;;;;5120224;27;20047;-76
2022/10/12 05:18:10;;;;;;;7.13;3.60;;;7.00;99.90;;;;;;5127993;27;20114;-76
2022/10/12 05:20:37;;;;;;;10.18;3.63;;;8.40;99.90;;;;;;5149987;27;20133;-78
2022/10/12 05:23:03;;;;;;;9.25;3.13;;;6.70;99.90;;;;;;5114341;27;20513;-76
2022/10/12 05:25:29;;;;;;;6.68;2.92;;;6.90;99.90;;;;;;5126309;27;20050;-77
2022/10/12 05:27:56;;;;;;;11.90;3.60;;;7.00;99.90;;;;;;5112926;27;20042;-76
2022/10/12 05:30:21;;;;;;;7.03;3.25;;;7.00;99.90;;;;;;5150581;27;20043;-77
2022/10/12 05:32:48;;;;;;;6.97;2.80;;;7.00;99.90;;;;;;5128032;27;20043;-76
2022/10/12 05:35:13;;;;;;;6.60;2.80;;;7.00;99.90;;;;;;5130400;27;20079;-77
2022/10/12 05:37:39;;;;;;;9.35;2.63;;;8.00;99.90;;;;;;5125833;27;20505;-76
2022/10/12 05:40:05;;;;;;;7.97;3.05;;;6.90;99.90;;;;;;5130027;27;20389;-76
2022/10/12 05:42:31;;;;;;;8.80;3.03;;;6.90;99.90;;;;;;5150384;27;20038;-77
2022/10/12 05:44:56;;;;;;;8.00;2.80;;;8.80;99.90;;;;;;5127931;27;20087;-76
2022/10/12 05:47:22;;;;;;;10.00;3.58;;;6.90;99.90;;;;;;5149917;27;20074;-76
2022/10/12 05:49:47;;;;;;;10.98;2.80;;;6.90;99.90;;;;;;5106554;27;20406;-77
2022/10/12 05:52:13;;;;;;;9.35;2.88;;;6.90;99.90;;;;;;5117564;27;20115;-77
2022/10/12 05:54:39;;;;;;;4.60;2.13;;;6.90;99.90;;;;;;5114715;27;20482;-77
2022/10/12 05:57:04;;;;;;;6.65;2.67;;;8.60;99.90;;;;;;5126164;27;20442;-77
2022/10/12 05:59:30;;;;;;;11.43;4.28;;;6.80;99.90;;;;;;5149370;27;20035;-76
2022/10/12 06:01:56;;;;;;;14.02;4.32;;;6.90;99.90;;;;;;5123319;27;20031;-77
2022/10/12 06:04:21;;;;;;;11.18;3.90;;;6.90;99.90;;;;;;5106272;27;20047;-76
2022/10/12 06:06:47;;;;;;;10.48;3.50;;;8.40;99.90;;;;;;5131279;27;20074;-76
2022/10/12 06:09:12;;;;;;;6.35;3.20;;;6.80;99.90;;;;;;5107299;27;20070;-78
2022/10/12 06:11:38;;;;;;;8.43;3.67;;;6.80;99.90;;;;;;5105090;27;20320;-78
2022/10/12 06:14:04;;;;;;;12.35;3.08;;;6.80;99.90;;;;;;5130139;27;20091;-78
2022/10/12 06:16:30;;;;;;;9.60;3.85;;;6.80;99.90;;;;;;5126138;27;20447;-77
2022/10/12 06:18:56;;;;;;;7.43;3.33;;;6.70;99.90;;;;;;5149373;27;20027;-78
2022/10/12 06:21:22;;;;;;;10.55;3.58;;;8.10;99.90;;;;;;5145228;27;20042;-78
2022/10/12 06:23:47;;;;;;;9.88;3.38;;;6.80;99.90;;;;;;5103675;27;20035;-78
2022/10/12 06:26:13;;;;;;;9.30;3.17;;;8.30;99.90;;;;;;5143270;27;20494;-77
2022/10/12 06:28:38;;;;;;;9.25;2.85;;;5.40;99.90;;;;;;5127360;27;20035;-77
2022/10/12 06:31:04;;;;;;;5.35;2.47;;;8.20;99.90;;;;;;5149773;27;20034;-78
2022/10/12 06:33:30;;;;;;;6.63;2.80;;;6.80;99.90;;;;;;5125772;27;20042;-78
2022/10/12 06:35:55;;;;;;;6.97;2.97;;;8.70;99.90;;;;;;5149496;27;20041;-78
2022/10/12 06:38:22;;;;;;;6.80;2.55;;;6.80;99.90;;;;;;5118399;27;20054;-77
2022/10/12 06:40:48;;;;;;;7.53;3.55;;;7.60;99.90;;;;;;5148776;27;20031;-77
2022/10/12 06:43:13;;;;;;;7.75;3.38;;;6.80;99.90;;;;;;5144209;27;20048;-78
2022/10/12 06:45:39;;;;;;;8.75;3.20;;;6.80;99.90;;;;;;5119488;27;20032;-78
2022/10/12 06:48:11;;;;;;;8.95;3.50;;;8.70;99.90;;;;;;5149449;27;20313;-78
2022/10/12 06:50:37;;;;;;;11.73;3.42;;;6.70;99.90;;;;;;5101557;27;20546;-75
2022/10/12 06:53:03;;;;;;;7.28;3.53;;;6.80;99.90;;;;;;5105549;27;20070;-78
2022/10/12 06:55:28;;;;;;;9.63;3.53;;;6.70;99.90;;;;;;5105201;27;20047;-77
2022/10/12 06:57:55;;;;;;;8.32;3.97;;;6.80;99.90;;;;;;5131102;27;20473;-77
2022/10/12 07:00:21;;;;;;;12.43;3.70;;;6.70;99.90;;;;;;5117917;28;20066;-77
2022/10/12 07:02:50;;;;;;;8.43;3.85;;;6.80;99.90;;;;;;5101084;27;20542;-78
2022/10/12 07:05:17;;;;;;;9.30;4.38;;;6.90;99.90;;;;;;5150081;27;20042;-77
2022/10/12 07:07:43;;;;;;;13.30;4.10;;;6.90;99.90;;;;;;5126036;27;20060;-77
2022/10/12 07:10:09;;;;;;;8.75;3.92;;;6.90;99.90;;;;;;5149156;27;20051;-77
2022/10/12 07:12:38;;;;;;;10.20;3.78;;;6.90;99.90;;;;;;5129038;27;20062;-77
2022/10/12 07:15:05;;;;;;;10.75;4.25;;;6.90;99.90;;;;;;5124651;27;20029;-78
2022/10/12 07:17:31;;;;;;;7.70;4.55;;;6.90;99.90;;;;;;5146414;27;20038;-78
2022/10/12 07:19:56;;;;;;;10.95;4.25;;;6.90;99.90;;;;;;5149580;27;20114;-78
2022/10/12 07:22:22;;;;;;;12.52;4.47;;;8.30;99.90;;;;;;5145564;27;20411;-78
2022/10/12 07:24:47;;;;;;;9.00;4.53;;;6.90;99.90;;;;;;5149219;27;20034;-77
2022/10/12 07:27:13;;;;;;;13.52;4.78;;;7.00;99.90;;;;;;5149089;27;20047;-78
2022/10/12 07:29:39;;;;;;;8.70;4.78;;;7.00;99.90;;;;;;5123689;27;20047;-77
2022/10/12 07:32:06;;;;;;;12.48;4.60;;;9.00;99.90;;;;;;5112708;27;20479;-78
2022/10/12 07:34:32;;;;;;;11.10;5.22;;;7.10;99.90;;;;;;5149870;27;20042;-78
2022/10/12 07:36:58;;;;;;;11.98;4.72;;;8.60;99.90;;;;;;5146694;27;20147;-78
2022/10/12 07:39:24;;;;;;;14.07;5.20;;;6.80;99.90;;;;;;5106737;27;20462;-77
2022/10/12 07:41:50;;;;;;;14.02;4.40;;;8.10;99.90;;;;;;5152830;27;20138;-76
2022/10/12 07:44:18;;;;;;;18.08;5.32;;;7.20;99.90;;;;;;5152109;27;20450;-77
2022/10/12 07:46:44;;;;;;;17.92;5.13;;;7.30;99.90;;;;;;5149489;27;20405;-76
2022/10/12 07:49:11;;;;;;;12.43;4.57;;;7.50;99.90;;;;;;5151945;27;20474;-77
2022/10/12 07:51:37;;;;;;;12.65;4.28;;;8.20;99.90;;;;;;5128962;27;20278;-77
2022/10/12 07:54:02;;;;;;;15.00;4.38;;;7.50;99.90;;;;;;5151031;27;20026;-76
2022/10/12 07:56:28;;;;;;;11.90;4.70;;;9.20;99.90;;;;;;5147663;27;20050;-77
2022/10/12 07:58:56;;;;;;;14.80;4.75;;;7.60;99.90;;;;;;5113920;27;20393;-76
2022/10/12 08:01:24;;;;;;;14.35;5.82;;;7.70;99.90;;;;;;5152906;27;20058;-78
2022/10/12 08:03:50;;;;;;;13.82;4.97;;;6.60;99.90;;;;;;5128461;27;20402;-77
2022/10/12 08:06:19;;;;;;;17.20;5.65;;;7.80;99.90;;;;;;5146333;27;20039;-78
2022/10/12 08:08:45;;;;;;;18.00;4.88;;;8.00;99.90;;;;;;5148986;27;20035;-77
2022/10/12 08:11:11;;;;;;;11.90;4.95;;;8.20;99.90;;;;;;5109996;27;20046;-76
2022/10/12 08:13:37;;;;;;;28.52;6.03;;;8.10;99.90;;;;;;5117664;27;20038;-77
2022/10/12 08:16:05;;;;;;;12.38;5.22;;;8.10;99.90;;;;;;5132136;27;20472;-78
2022/10/12 08:18:31;;;;;;;15.85;5.85;;;8.20;99.90;;;;;;5133178;27;20039;-77
2022/10/12 08:20:57;;;;;;;10.60;4.97;;;9.60;99.90;;;;;;5125948;27;20039;-78
2022/10/12 08:23:23;;;;;;;13.13;5.30;;;8.20;99.90;;;;;;5152356;27;20390;-78
2022/10/12 08:25:53;;;;;;;14.32;5.68;;;8.30;99.90;;;;;;5125055;27;20429;-79
2022/10/12 08:28:20;;;;;;;17.90;5.32;;;8.30;99.90;;;;;;5124158;27;20049;-78
2022/10/12 08:30:46;;;;;;;15.60;6.05;;;8.30;99.90;;;;;;5118520;27;20048;-79
2022/10/12 08:33:12;;;;;;;14.05;6.40;;;8.40;99.90;;;;;;5149704;27;20038;-78
2022/10/12 08:35:39;;;;;;;15.48;6.05;;;8.40;99.90;;;;;;5151879;27;20488;-78
2022/10/12 08:38:05;;;;;;;19.65;7.93;;;9.20;99.90;;;;;;5144514;27;20453;-78
2022/10/12 08:40:35;;;;;;;13.70;6.72;;;8.60;99.90;;;;;;5115872;27;20407;-78
2022/10/12 08:43:22;;;;;;;15.18;7.25;;;8.60;99.90;;;;;;5115180;27;20473;-78
2022/10/12 08:46:02;;;;;;;18.33;7.03;;;8.70;99.90;;;;;;5131693;27;20078;-78
2022/10/12 08:49:18;;;;;;;;;;;;;;;;;;;;;
2022/10/12 08:51:59;;;;;;;17.20;7.13;;;8.70;99.90;;;;;;5019144;28;20033;-78
2022/10/12 08:54:37;;;;;;;13.00;6.82;;;10.40;99.90;;;;;;5009937;28;20651;-78
2022/10/12 08:57:14;;;;;;;14.15;6.85;;;8.80;99.90;;;;;;5094759;27;20537;-77
2022/10/12 08:59:39;;;;;;;18.58;7.13;;;8.80;99.90;;;;;;5098315;27;20248;-77
2022/10/12 09:02:54;;;;;;;15.27;6.75;;;8.90;99.90;;;;;;5123437;27;20042;-77
2022/10/12 09:05:51;;;;;;;16.58;7.47;;;8.90;99.90;;;;;;5107432;27;20537;-78
2022/10/12 09:08:49;;;;;;;14.75;7.85;;;10.70;99.90;;;;;;5106192;27;20393;-76
2022/10/12 09:11:25;;;;;;;20.02;7.25;;;9.00;99.90;;;;;;5120160;27;20035;-77
2022/10/12 09:14:08;;;;;;;15.00;6.70;;;9.10;99.90;;;;;;5150081;27;20035;-76
2022/10/12 09:16:40;;;;;;;17.25;7.10;;;9.20;99.90;;;;;;5096720;27;20409;-77
2022/10/12 09:19:21;;;;;;;16.35;7.60;;;9.30;99.90;;;;;;5115235;27;20070;-77
2022/10/12 09:21:48;;;;;;;18.23;6.45;;;9.40;99.90;;;;;;5142222;27;20034;-78
2022/10/12 09:24:26;;;;;;;15.88;5.50;;;9.40;99.90;;;;;;5117557;27;20428;-79
2022/10/12 09:26:57;;;;;;;14.98;6.35;;;9.60;99.90;;;;;;5096043;27;20047;-79
2022/10/12 09:29:27;;;;;;;12.35;5.50;;;9.70;99.90;;;;;;5106867;27;20039;-77
2022/10/12 09:32:10;;;;;;;14.48;5.22;;;9.80;99.90;;;;;;5106017;27;20482;-76
2022/10/12 09:34:36;;;;;;;11.68;4.38;;;9.20;99.90;;;;;;5123125;27;20120;-78
2022/10/12 09:37:03;;;;;;;15.13;5.60;;;10.00;99.90;;;;;;5095172;27;20062;-78
2022/10/12 09:39:36;;;;;;;10.15;4.15;;;11.60;99.90;;;;;;5117797;27;20047;-78
2022/10/12 09:42:02;;;;;;;12.98;4.50;;;10.20;99.90;;;;;;5123787;27;20418;-77
2022/10/12 09:44:47;;;;;;;12.40;4.30;;;10.50;99.90;;;;;;5125138;27;20155;-77
2022/10/12 09:47:26;;;;;;;11.65;4.47;;;10.40;99.90;;;;;;5138641;27;20035;-77
2022/10/12 09:49:57;;;;;;;12.75;4.85;;;11.20;99.90;;;;;;5119616;27;20039;-77
2022/10/12 09:52:35;;;;;;;9.25;3.60;;;11.50;99.90;;;;;;5111684;27;20381;-77
2022/10/12 09:55:21;;;;;;;11.60;3.72;;;10.90;99.90;;;;;;5121980;27;20097;-77
2022/10/12 09:57:54;;;;;;;16.13;4.43;;;10.70;99.90;;;;;;5112422;27;20039;-78
2022/10/12 10:00:26;;;;;;;12.48;3.33;;;11.60;99.90;;;;;;5123999;27;20146;-79
2022/10/12 10:02:53;;;;;;;14.13;3.70;;;10.80;99.90;;;;;;5148768;27;20449;-77
2022/10/12 10:05:25;;;;;;;13.43;3.53;;;12.50;99.90;;;;;;5128757;27;20082;-77
2022/10/12 10:07:50;;;;;;;16.25;4.07;;;10.90;99.90;;;;;;5149862;27;20043;-77
2022/10/12 10:10:23;;;;;;;13.25;3.47;;;11.00;99.90;;;;;;5125774;27;20099;-79
2022/10/12 10:12:52;;;;;;;13.13;3.53;;;11.20;99.90;;;;;;5114452;27;20042;-79
2022/10/12 10:15:30;;;;;;;8.40;3.22;;;12.60;99.90;;;;;;5097420;27;20482;-77
2022/10/12 10:18:02;;;;;;;11.90;3.28;;;11.30;99.90;;;;;;5146499;27;20038;-77
2022/10/12 10:20:52;;;;;;;12.57;3.63;;;12.90;99.90;;;;;;5124735;27;20039;-77
2022/10/12 10:23:33;;;;;;;10.45;2.88;;;11.50;99.90;;;;;;5123367;27;20490;-79
2022/10/12 10:26:13;;;;;;;15.05;3.08;;;11.50;99.90;;;;;;5126193;27;20043;-79
2022/10/12 10:28:41;;;;;;;12.13;2.70;;;11.60;99.90;;;;;;5108734;27;20050;-77
2022/10/12 10:31:20;;;;;;;11.88;2.92;;;11.70;99.90;;;;;;5089072;27;20031;-78
2022/10/12 10:34:17;;;;;;;10.85;3.03;;;12.80;99.90;;;;;;5139837;27;20034;-79
2022/10/12 10:37:04;;;;;;;14.38;2.53;;;12.00;99.90;;;;;;5140567;27;20114;-80
2022/10/12 10:39:51;;;;;;;10.00;2.55;;;13.60;99.90;;;;;;5141596;27;20156;-80
2022/10/12 10:42:36;;;;;;;11.93;2.65;;;12.30;99.90;;;;;;5126154;27;20099;-77
2022/10/12 10:45:42;;;;;;;8.40;2.53;;;12.40;99.90;;;;;;5137336;27;20038;-78
2022/10/12 10:48:25;;;;;;;12.57;2.90;;;12.50;99.90;;;;;;5127725;27;20039;-79
2022/10/12 10:50:59;;;;;;;10.00;2.72;;;13.80;99.90;;;;;;5119554;27;20337;-77
2022/10/12 10:53:29;;;;;;;8.68;2.35;;;14.20;99.90;;;;;;5124610;28;20114;-78
2022/10/12 10:55:57;;;;;;;9.32;2.20;;;13.90;99.90;;;;;;5123019;27;20531;-78
2022/10/12 10:58:34;;;;;;;13.13;2.97;;;12.90;99.90;;;;;;5141158;27;20031;-80
2022/10/12 11:01:17;;;;;;;8.60;3.25;;;13.00;99.90;;;;;;5118664;27;20456;-78
2022/10/12 11:03:49;;;;;;;9.75;2.83;;;14.50;99.90;;;;;;5101843;27;20031;-78
2022/10/12 11:06:26;;;;;;;11.80;2.95;;;15.20;99.90;;;;;;5135556;27;20042;-79
2022/10/12 11:09:09;;;;;;;20.83;3.75;;;13.30;99.90;;;;;;5101195;27;20107;-78
2022/10/12 11:11:36;;;;;;;11.75;3.10;;;14.00;99.90;;;;;;5144276;27;20042;-77
2022/10/12 11:14:16;;;;;;;15.45;2.35;;;13.90;99.90;;;;;;5134067;27;20032;-78
2022/10/12 11:16:59;;;;;;;11.30;3.10;;;13.70;99.90;;;;;;5123122;27;20054;-80
2022/10/12 11:20:00;;;;;;;13.27;2.63;;;13.80;99.90;;;;;;5140835;27;20035;-80
2022/10/12 11:22:53;;;;;;;10.60;2.10;;;13.90;99.90;;;;;;5127026;27;20435;-77
2022/10/12 11:25:38;;;;;;;14.77;3.17;;;14.50;99.90;;;;;;5106114;27;20420;-80
2022/10/12 11:28:06;;;;;;;12.35;2.80;;;14.10;99.90;;;;;;5148529;27;20050;-79
2022/10/12 11:30:39;;;;;;;14.02;2.63;;;14.20;99.90;;;;;;5127764;27;20039;-77
2022/10/12 11:33:20;;;;;;;10.40;2.40;;;15.60;99.90;;;;;;5105321;27;20031;-77
2022/10/12 11:35:46;;;;;;;12.45;2.45;;;14.40;99.90;;;;;;5113977;27;20039;-77
2022/10/12 11:38:28;;;;;;;10.75;2.28;;;14.60;99.90;;;;;;5100761;27;20047;-77
2022/10/12 11:41:16;;;;;;;13.90;2.88;;;14.60;99.90;;;;;;5132027;27;20039;-77
2022/10/12 11:44:03;;;;;;;8.90;2.15;;;15.90;99.90;;;;;;5122246;27;20112;-76
2022/10/12 11:47:06;;;;;;;11.70;2.95;;;14.80;99.90;;;;;;5122741;27;20050;-77
2022/10/12 11:49:48;;;;;;;10.77;2.20;;;14.90;99.90;;;;;;5110987;27;20051;-78
2022/10/12 11:52:16;;;;;;;13.10;2.15;;;15.00;99.90;;;;;;5124129;27;20506;-78
2022/10/12 11:54:58;;;;;;;10.38;1.88;;;16.20;99.90;;;;;;5125471;27;20088;-77
2022/10/12 11:57:28;;;;;;;9.80;2.05;;;16.50;99.90;;;;;;5122128;27;20047;-77
2022/10/12 12:00:03;;;;;;;7.75;2.03;;;15.30;99.90;;;;;;5105135;27;20092;-78
2022/10/12 12:02:41;;;;;;;11.13;1.83;;;15.30;99.90;;;;;;5122830;27;20501;-77
2022/10/12 12:05:14;;;;;;;7.95;1.75;;;15.40;99.90;;;;;;5098793;27;20035;-78
2022/10/12 12:07:44;;;;;;;8.82;1.63;;;15.40;99.90;;;;;;5122165;27;20039;-78
2022/10/12 12:10:40;;;;;;;5.60;1.60;;;15.50;99.90;;;;;;5128061;27;20035;-77
2022/10/12 12:13:16;;;;;;;7.07;2.03;;;15.50;99.90;;;;;;5074483;27;20151;-77
2022/10/12 12:16:02;;;;;;;7.45;1.70;;;15.60;99.90;;;;;;5112689;27;20058;-78
2022/10/12 12:18:32;;;;;;;5.72;1.67;;;15.70;99.90;;;;;;5108854;27;20047;-78
2022/10/12 12:21:05;;;;;;;6.07;1.35;;;15.70;99.90;;;;;;5100061;27;20099;-78
2022/10/12 12:23:51;;;;;;;8.27;1.77;;;15.80;99.90;;;;;;5138707;27;20045;-78
2022/10/12 12:26:19;;;;;;;6.50;1.63;;;15.80;99.90;;;;;;5141714;27;20046;-78
2022/10/12 12:28:51;;;;;;;9.05;1.30;;;15.90;99.90;;;;;;5125480;27;20043;-77
2022/10/12 12:31:26;;;;;;;7.93;1.77;;;15.90;99.90;;;;;;5099406;27;20126;-78
2022/10/12 12:34:21;;;;;;;5.43;1.20;;;16.10;99.90;;;;;;5128753;27;20047;-79
2022/10/12 12:36:50;;;;;;;6.88;1.25;;;16.10;99.90;;;;;;5124073;27;20045;-77
2022/10/12 12:39:32;;;;;;;8.43;1.65;;;16.20;99.90;;;;;;5111700;27;20035;-76
2022/10/12 12:42:00;;;;;;;9.82;1.45;;;16.20;99.90;;;;;;5104421;27;20069;-76
2022/10/12 12:44:39;;;;;;;7.57;1.45;;;16.60;99.90;;;;;;5101509;27;20043;-76
2022/10/12 12:47:08;;;;;;;7.60;1.73;;;16.20;99.90;;;;;;5131911;27;20472;-76
2022/10/12 12:49:36;;;;;;;5.88;1.42;;;16.20;99.90;;;;;;5143505;27;20478;-76
2022/10/12 12:52:19;;;;;;;7.50;1.80;;;16.20;99.90;;;;;;5115658;27;20074;-75
2022/10/12 12:55:07;;;;;;;7.10;1.50;;;16.30;99.90;;;;;;5123658;27;20077;-76
2022/10/12 12:57:48;;;;;;;5.88;1.63;;;16.30;99.90;;;;;;5128897;27;20062;-76
2022/10/12 13:00:24;;;;;;;8.40;1.65;;;16.30;99.90;;;;;;5141778;27;20066;-77
2022/10/12 13:03:37;;;;;;;7.55;1.55;;;16.30;99.90;;;;;;5145382;27;20039;-76
2022/10/12 13:06:23;;;;;;;7.85;1.45;;;16.30;99.90;;;;;;5120482;27;20074;-77
2022/10/12 13:09:11;;;;;;;7.93;1.73;;;16.30;99.90;;;;;;5109697;27;20074;-80
2022/10/12 13:11:53;;;;;;;6.20;1.98;;;16.30;99.90;;;;;;5138939;27;20035;-78
2022/10/12 13:14:31;;;;;;;6.75;1.48;;;16.40;99.90;;;;;;5097876;27;20028;-77
2022/10/12 13:17:32;;;;;;;5.40;1.77;;;16.40;99.90;;;;;;5124429;27;20057;-78